sensor_id;sensor_type;location;lat;lon;timestamp;P1;durP1;ratioP1;P2;durP2;ratioP2
6434;SDS011;3250;42.694;23.278;2023-04-25T00:00:56;4.70;;;2.40;;
6434;SDS011;3250;42.694;23.278;2023-04-25T00:03:21;4.57;;;2.40;;
6434;SDS011;3250;42.694;23.278;2023-04-25T00:05:48;4.30;;;2.00;;
6434;SDS011;3250;42.694;23.278;2023-04-25T00:08:13;3.37;;;2.27;;
6434;SDS011;3250;42.694;23.278;2023-04-25T00:10:39;3.77;;;2.17;;
6434;SDS011;3250;42.694;23.278;2023-04-25T00:13:04;6.72;;;2.60;;
6434;SDS011;3250;42.694;23.278;2023-04-25T00:15:31;4.63;;;2.40;;
6434;SDS011;3250;42.694;23.278;2023-04-25T00:17:56;5.80;;;2.70;;
6434;SDS011;3250;42.694;23.278;2023-04-25T00:20:22;4.30;;;2.50;;
6434;SDS011;3250;42.694;23.278;2023-04-25T00:22:48;4.10;;;2.90;;
6434;SDS011;3250;42.694;23.278;2023-04-25T00:25:14;4.90;;;2.83;;
6434;SDS011;3250;42.694;23.278;2023-04-25T00:27:39;3.20;;;2.60;;
6434;SDS011;3250;42.694;23.278;2023-04-25T00:30:07;5.10;;;2.40;;
6434;SDS011;3250;42.694;23.278;2023-04-25T00:32:33;4.93;;;2.00;;
6434;SDS011;3250;42.694;23.278;2023-04-25T00:34:58;3.40;;;2.70;;
6434;SDS011;3250;42.694;23.278;2023-04-25T00:37:24;9.73;;;4.73;;
6434;SDS011;3250;42.694;23.278;2023-04-25T00:39:50;7.90;;;3.78;;
6434;SDS011;3250;42.694;23.278;2023-04-25T00:42:15;5.32;;;3.33;;
6434;SDS011;3250;42.694;23.278;2023-04-25T00:44:41;3.00;;;2.70;;
6434;SDS011;3250;42.694;23.278;2023-04-25T00:47:08;3.70;;;2.40;;
6434;SDS011;3250;42.694;23.278;2023-04-25T00:49:33;3.00;;;2.43;;
6434;SDS011;3250;42.694;23.278;2023-04-25T00:51:59;4.00;;;3.10;;
6434;SDS011;3250;42.694;23.278;2023-04-25T00:54:25;3.40;;;2.67;;
6434;SDS011;3250;42.694;23.278;2023-04-25T00:56:50;3.77;;;2.20;;
6434;SDS011;3250;42.694;23.278;2023-04-25T00:59:18;3.43;;;2.30;;
6434;SDS011;3250;42.694;23.278;2023-04-25T01:01:45;5.47;;;2.40;;
6434;SDS011;3250;42.694;23.278;2023-04-25T01:04:10;5.38;;;3.08;;
6434;SDS011;3250;42.694;23.278;2023-04-25T01:06:36;4.97;;;2.93;;
6434;SDS011;3250;42.694;23.278;2023-04-25T01:09:01;4.90;;;2.90;;
6434;SDS011;3250;42.694;23.278;2023-04-25T01:11:27;2.63;;;2.10;;
6434;SDS011;3250;42.694;23.278;2023-04-25T01:13:53;3.17;;;2.77;;
6434;SDS011;3250;42.694;23.278;2023-04-25T01:16:18;5.73;;;3.00;;
6434;SDS011;3250;42.694;23.278;2023-04-25T01:18:45;2.43;;;1.97;;
6434;SDS011;3250;42.694;23.278;2023-04-25T01:21:11;2.90;;;2.20;;
6434;SDS011;3250;42.694;23.278;2023-04-25T01:23:38;6.17;;;3.60;;
6434;SDS011;3250;42.694;23.278;2023-04-25T01:26:05;5.67;;;3.10;;
6434;SDS011;3250;42.694;23.278;2023-04-25T01:28:33;5.23;;;3.43;;
6434;SDS011;3250;42.694;23.278;2023-04-25T01:30:59;3.93;;;3.07;;
6434;SDS011;3250;42.694;23.278;2023-04-25T01:33:25;3.93;;;2.80;;
6434;SDS011;3250;42.694;23.278;2023-04-25T01:35:51;5.23;;;3.23;;
6434;SDS011;3250;42.694;23.278;2023-04-25T01:38:16;3.27;;;2.97;;
6434;SDS011;3250;42.694;23.278;2023-04-25T01:40:42;6.03;;;3.33;;
6434;SDS011;3250;42.694;23.278;2023-04-25T01:43:09;3.80;;;3.13;;
6434;SDS011;3250;42.694;23.278;2023-04-25T01:45:37;4.33;;;3.10;;
6434;SDS011;3250;42.694;23.278;2023-04-25T01:48:06;4.10;;;3.30;;
6434;SDS011;3250;42.694;23.278;2023-04-25T01:50:36;4.40;;;3.20;;
6434;SDS011;3250;42.694;23.278;2023-04-25T01:53:02;6.53;;;3.37;;
6434;SDS011;3250;42.694;23.278;2023-04-25T01:55:29;4.28;;;3.50;;
6434;SDS011;3250;42.694;23.278;2023-04-25T01:57:54;4.73;;;3.87;;
6434;SDS011;3250;42.694;23.278;2023-04-25T02:00:20;5.27;;;3.50;;
6434;SDS011;3250;42.694;23.278;2023-04-25T02:02:45;5.10;;;3.80;;
6434;SDS011;3250;42.694;23.278;2023-04-25T02:05:11;4.57;;;3.47;;
6434;SDS011;3250;42.694;23.278;2023-04-25T02:07:36;4.53;;;3.47;;
6434;SDS011;3250;42.694;23.278;2023-04-25T02:10:02;3.73;;;3.30;;
6434;SDS011;3250;42.694;23.278;2023-04-25T02:12:28;6.13;;;3.50;;
6434;SDS011;3250;42.694;23.278;2023-04-25T02:14:53;8.50;;;4.50;;
6434;SDS011;3250;42.694;23.278;2023-04-25T02:17:19;4.93;;;3.30;;
6434;SDS011;3250;42.694;23.278;2023-04-25T02:19:46;5.90;;;3.90;;
6434;SDS011;3250;42.694;23.278;2023-04-25T02:22:12;6.20;;;4.30;;
6434;SDS011;3250;42.694;23.278;2023-04-25T02:24:37;7.77;;;3.80;;
6434;SDS011;3250;42.694;23.278;2023-04-25T02:27:03;5.33;;;4.10;;
6434;SDS011;3250;42.694;23.278;2023-04-25T02:29:29;5.90;;;3.23;;
6434;SDS011;3250;42.694;23.278;2023-04-25T02:31:55;6.47;;;4.47;;
6434;SDS011;3250;42.694;23.278;2023-04-25T02:34:20;8.50;;;4.25;;
6434;SDS011;3250;42.694;23.278;2023-04-25T02:36:47;5.17;;;4.20;;
6434;SDS011;3250;42.694;23.278;2023-04-25T02:39:13;7.82;;;5.13;;
6434;SDS011;3250;42.694;23.278;2023-04-25T02:41:39;24.67;;;9.90;;
6434;SDS011;3250;42.694;23.278;2023-04-25T02:44:04;19.93;;;6.13;;
6434;SDS011;3250;42.694;23.278;2023-04-25T02:46:29;16.70;;;7.10;;
6434;SDS011;3250;42.694;23.278;2023-04-25T02:48:55;15.67;;;7.23;;
6434;SDS011;3250;42.694;23.278;2023-04-25T02:51:20;19.23;;;6.93;;
6434;SDS011;3250;42.694;23.278;2023-04-25T02:53:46;19.00;;;7.20;;
6434;SDS011;3250;42.694;23.278;2023-04-25T02:56:11;12.93;;;6.45;;
6434;SDS011;3250;42.694;23.278;2023-04-25T02:58:36;10.57;;;7.27;;
6434;SDS011;3250;42.694;23.278;2023-04-25T03:01:02;11.07;;;6.60;;
6434;SDS011;3250;42.694;23.278;2023-04-25T03:03:27;11.77;;;6.80;;
6434;SDS011;3250;42.694;23.278;2023-04-25T03:05:53;15.00;;;7.37;;
6434;SDS011;3250;42.694;23.278;2023-04-25T03:08:18;11.53;;;7.07;;
6434;SDS011;3250;42.694;23.278;2023-04-25T03:10:44;8.97;;;6.07;;
6434;SDS011;3250;42.694;23.278;2023-04-25T03:13:10;10.23;;;6.20;;
6434;SDS011;3250;42.694;23.278;2023-04-25T03:15:36;8.50;;;6.10;;
6434;SDS011;3250;42.694;23.278;2023-04-25T03:18:01;8.90;;;6.65;;
6434;SDS011;3250;42.694;23.278;2023-04-25T03:20:27;7.83;;;5.60;;
6434;SDS011;3250;42.694;23.278;2023-04-25T03:22:53;9.47;;;5.27;;
6434;SDS011;3250;42.694;23.278;2023-04-25T03:25:19;8.10;;;5.80;;
6434;SDS011;3250;42.694;23.278;2023-04-25T03:27:44;6.33;;;4.80;;
6434;SDS011;3250;42.694;23.278;2023-04-25T03:30:09;5.45;;;4.85;;
6434;SDS011;3250;42.694;23.278;2023-04-25T03:32:36;5.68;;;5.05;;
6434;SDS011;3250;42.694;23.278;2023-04-25T03:35:01;6.13;;;4.73;;
6434;SDS011;3250;42.694;23.278;2023-04-25T03:37:26;6.37;;;5.70;;
6434;SDS011;3250;42.694;23.278;2023-04-25T03:39:52;5.87;;;4.73;;
6434;SDS011;3250;42.694;23.278;2023-04-25T03:42:17;7.33;;;5.30;;
6434;SDS011;3250;42.694;23.278;2023-04-25T03:44:43;9.73;;;7.07;;
6434;SDS011;3250;42.694;23.278;2023-04-25T03:47:08;8.47;;;6.33;;
6434;SDS011;3250;42.694;23.278;2023-04-25T03:49:34;7.77;;;5.50;;
6434;SDS011;3250;42.694;23.278;2023-04-25T03:52:00;9.63;;;6.70;;
6434;SDS011;3250;42.694;23.278;2023-04-25T03:54:26;6.87;;;5.00;;
6434;SDS011;3250;42.694;23.278;2023-04-25T03:56:51;9.10;;;5.43;;
6434;SDS011;3250;42.694;23.278;2023-04-25T03:59:17;6.10;;;4.60;;
6434;SDS011;3250;42.694;23.278;2023-04-25T04:01:42;11.83;;;7.30;;
6434;SDS011;3250;42.694;23.278;2023-04-25T04:04:07;12.17;;;7.90;;
6434;SDS011;3250;42.694;23.278;2023-04-25T04:06:33;8.40;;;6.13;;
6434;SDS011;3250;42.694;23.278;2023-04-25T04:08:58;17.73;;;10.90;;
6434;SDS011;3250;42.694;23.278;2023-04-25T04:11:24;8.70;;;6.20;;
6434;SDS011;3250;42.694;23.278;2023-04-25T04:13:49;9.47;;;5.87;;
6434;SDS011;3250;42.694;23.278;2023-04-25T04:16:15;8.73;;;5.43;;
6434;SDS011;3250;42.694;23.278;2023-04-25T04:18:40;7.53;;;5.50;;
6434;SDS011;3250;42.694;23.278;2023-04-25T04:21:06;7.00;;;5.13;;
6434;SDS011;3250;42.694;23.278;2023-04-25T04:23:31;9.37;;;5.53;;
6434;SDS011;3250;42.694;23.278;2023-04-25T04:25:56;9.07;;;5.67;;
6434;SDS011;3250;42.694;23.278;2023-04-25T04:28:22;9.73;;;5.07;;
6434;SDS011;3250;42.694;23.278;2023-04-25T04:30:48;7.50;;;5.37;;
6434;SDS011;3250;42.694;23.278;2023-04-25T04:33:16;9.67;;;6.00;;
6434;SDS011;3250;42.694;23.278;2023-04-25T04:35:41;7.83;;;5.57;;
6434;SDS011;3250;42.694;23.278;2023-04-25T04:38:07;8.23;;;5.13;;
6434;SDS011;3250;42.694;23.278;2023-04-25T04:40:32;5.57;;;4.60;;
6434;SDS011;3250;42.694;23.278;2023-04-25T04:42:58;6.87;;;4.97;;
6434;SDS011;3250;42.694;23.278;2023-04-25T04:45:23;6.10;;;5.07;;
6434;SDS011;3250;42.694;23.278;2023-04-25T04:47:49;5.37;;;4.87;;
6434;SDS011;3250;42.694;23.278;2023-04-25T04:50:15;6.40;;;5.23;;
6434;SDS011;3250;42.694;23.278;2023-04-25T04:52:41;6.27;;;5.37;;
6434;SDS011;3250;42.694;23.278;2023-04-25T04:55:07;6.87;;;5.30;;
6434;SDS011;3250;42.694;23.278;2023-04-25T04:57:33;9.20;;;6.30;;
6434;SDS011;3250;42.694;23.278;2023-04-25T04:59:59;8.52;;;6.68;;
6434;SDS011;3250;42.694;23.278;2023-04-25T05:02:26;7.40;;;5.73;;
6434;SDS011;3250;42.694;23.278;2023-04-25T05:04:51;8.00;;;5.80;;
6434;SDS011;3250;42.694;23.278;2023-04-25T05:07:18;7.33;;;5.30;;
6434;SDS011;3250;42.694;23.278;2023-04-25T05:09:44;8.13;;;4.80;;
6434;SDS011;3250;42.694;23.278;2023-04-25T05:12:09;7.68;;;5.50;;
6434;SDS011;3250;42.694;23.278;2023-04-25T05:14:35;8.17;;;6.73;;
6434;SDS011;3250;42.694;23.278;2023-04-25T05:17:00;8.83;;;6.63;;
6434;SDS011;3250;42.694;23.278;2023-04-25T05:19:25;6.93;;;5.67;;
6434;SDS011;3250;42.694;23.278;2023-04-25T05:21:51;6.77;;;5.57;;
6434;SDS011;3250;42.694;23.278;2023-04-25T05:24:17;6.93;;;5.30;;
6434;SDS011;3250;42.694;23.278;2023-04-25T05:26:42;9.20;;;5.87;;
6434;SDS011;3250;42.694;23.278;2023-04-25T05:29:07;9.17;;;6.07;;
6434;SDS011;3250;42.694;23.278;2023-04-25T05:31:33;7.83;;;5.73;;
6434;SDS011;3250;42.694;23.278;2023-04-25T05:33:58;9.27;;;5.33;;
6434;SDS011;3250;42.694;23.278;2023-04-25T05:36:24;6.23;;;4.90;;
6434;SDS011;3250;42.694;23.278;2023-04-25T05:38:49;5.97;;;4.43;;
6434;SDS011;3250;42.694;23.278;2023-04-25T05:41:15;5.47;;;3.93;;
6434;SDS011;3250;42.694;23.278;2023-04-25T05:43:40;7.17;;;5.43;;
6434;SDS011;3250;42.694;23.278;2023-04-25T05:46:10;5.37;;;3.90;;
6434;SDS011;3250;42.694;23.278;2023-04-25T05:48:36;4.80;;;3.83;;
6434;SDS011;3250;42.694;23.278;2023-04-25T05:51:02;7.33;;;4.63;;
6434;SDS011;3250;42.694;23.278;2023-04-25T05:53:28;5.57;;;4.00;;
6434;SDS011;3250;42.694;23.278;2023-04-25T05:55:53;6.53;;;4.67;;
6434;SDS011;3250;42.694;23.278;2023-04-25T05:58:18;4.97;;;4.03;;
6434;SDS011;3250;42.694;23.278;2023-04-25T06:00:44;6.60;;;5.00;;
6434;SDS011;3250;42.694;23.278;2023-04-25T06:03:11;5.03;;;4.03;;
6434;SDS011;3250;42.694;23.278;2023-04-25T06:05:37;6.17;;;5.07;;
6434;SDS011;3250;42.694;23.278;2023-04-25T06:08:02;6.30;;;4.33;;
6434;SDS011;3250;42.694;23.278;2023-04-25T06:10:27;8.40;;;4.73;;
6434;SDS011;3250;42.694;23.278;2023-04-25T06:12:53;8.70;;;5.13;;
6434;SDS011;3250;42.694;23.278;2023-04-25T06:15:18;6.27;;;4.90;;
6434;SDS011;3250;42.694;23.278;2023-04-25T06:17:44;7.30;;;5.03;;
6434;SDS011;3250;42.694;23.278;2023-04-25T06:20:09;7.83;;;5.23;;
6434;SDS011;3250;42.694;23.278;2023-04-25T06:22:35;12.03;;;6.43;;
6434;SDS011;3250;42.694;23.278;2023-04-25T06:25:00;11.07;;;6.60;;
6434;SDS011;3250;42.694;23.278;2023-04-25T06:27:27;8.23;;;6.10;;
6434;SDS011;3250;42.694;23.278;2023-04-25T06:29:53;11.27;;;6.37;;
6434;SDS011;3250;42.694;23.278;2023-04-25T06:32:18;8.80;;;6.50;;
6434;SDS011;3250;42.694;23.278;2023-04-25T06:34:43;9.40;;;6.60;;
6434;SDS011;3250;42.694;23.278;2023-04-25T06:37:09;11.13;;;6.60;;
6434;SDS011;3250;42.694;23.278;2023-04-25T06:39:34;11.23;;;6.00;;
6434;SDS011;3250;42.694;23.278;2023-04-25T06:42:00;12.43;;;6.93;;
6434;SDS011;3250;42.694;23.278;2023-04-25T06:44:25;8.40;;;6.38;;
6434;SDS011;3250;42.694;23.278;2023-04-25T06:46:51;7.30;;;5.97;;
6434;SDS011;3250;42.694;23.278;2023-04-25T06:49:17;16.85;;;5.95;;
6434;SDS011;3250;42.694;23.278;2023-04-25T06:51:42;8.30;;;6.30;;
6434;SDS011;3250;42.694;23.278;2023-04-25T06:54:07;8.25;;;5.75;;
6434;SDS011;3250;42.694;23.278;2023-04-25T06:56:34;7.72;;;5.82;;
6434;SDS011;3250;42.694;23.278;2023-04-25T06:59:00;7.43;;;4.55;;
6434;SDS011;3250;42.694;23.278;2023-04-25T07:01:25;6.13;;;4.33;;
6434;SDS011;3250;42.694;23.278;2023-04-25T07:03:51;7.03;;;5.10;;
6434;SDS011;3250;42.694;23.278;2023-04-25T07:06:16;7.97;;;4.77;;
6434;SDS011;3250;42.694;23.278;2023-04-25T07:08:42;8.93;;;5.30;;
6434;SDS011;3250;42.694;23.278;2023-04-25T07:11:07;6.33;;;4.60;;
6434;SDS011;3250;42.694;23.278;2023-04-25T07:13:32;9.10;;;5.07;;
6434;SDS011;3250;42.694;23.278;2023-04-25T07:15:58;9.90;;;6.07;;
6434;SDS011;3250;42.694;23.278;2023-04-25T07:18:24;10.40;;;5.60;;
6434;SDS011;3250;42.694;23.278;2023-04-25T07:20:50;10.83;;;6.10;;
6434;SDS011;3250;42.694;23.278;2023-04-25T07:23:15;10.87;;;5.97;;
6434;SDS011;3250;42.694;23.278;2023-04-25T07:25:40;10.00;;;5.30;;
6434;SDS011;3250;42.694;23.278;2023-04-25T07:28:06;9.77;;;6.10;;
6434;SDS011;3250;42.694;23.278;2023-04-25T07:30:31;8.40;;;6.10;;
6434;SDS011;3250;42.694;23.278;2023-04-25T07:32:57;11.10;;;6.45;;
6434;SDS011;3250;42.694;23.278;2023-04-25T07:35:22;9.33;;;5.67;;
6434;SDS011;3250;42.694;23.278;2023-04-25T07:37:47;19.83;;;6.50;;
6434;SDS011;3250;42.694;23.278;2023-04-25T07:40:13;11.13;;;5.90;;
6434;SDS011;3250;42.694;23.278;2023-04-25T07:42:40;13.93;;;6.60;;
6434;SDS011;3250;42.694;23.278;2023-04-25T07:45:06;11.37;;;6.27;;
6434;SDS011;3250;42.694;23.278;2023-04-25T07:47:32;8.57;;;5.75;;
6434;SDS011;3250;42.694;23.278;2023-04-25T07:49:57;15.27;;;6.15;;
6434;SDS011;3250;42.694;23.278;2023-04-25T07:52:23;11.80;;;5.40;;
6434;SDS011;3250;42.694;23.278;2023-04-25T07:54:48;13.35;;;6.68;;
6434;SDS011;3250;42.694;23.278;2023-04-25T07:57:14;11.68;;;6.25;;
6434;SDS011;3250;42.694;23.278;2023-04-25T07:59:39;11.63;;;6.05;;
6434;SDS011;3250;42.694;23.278;2023-04-25T08:02:05;15.27;;;6.78;;
6434;SDS011;3250;42.694;23.278;2023-04-25T08:04:30;12.75;;;6.38;;
6434;SDS011;3250;42.694;23.278;2023-04-25T08:06:56;9.32;;;5.55;;
6434;SDS011;3250;42.694;23.278;2023-04-25T08:09:21;14.52;;;6.68;;
6434;SDS011;3250;42.694;23.278;2023-04-25T08:11:47;14.98;;;6.03;;
6434;SDS011;3250;42.694;23.278;2023-04-25T08:14:13;11.13;;;5.65;;
6434;SDS011;3250;42.694;23.278;2023-04-25T08:16:38;13.27;;;6.00;;
6434;SDS011;3250;42.694;23.278;2023-04-25T08:19:04;17.60;;;7.18;;
6434;SDS011;3250;42.694;23.278;2023-04-25T08:21:30;11.18;;;6.15;;
6434;SDS011;3250;42.694;23.278;2023-04-25T08:23:56;10.63;;;5.18;;
6434;SDS011;3250;42.694;23.278;2023-04-25T08:26:23;4.00;;;3.60;;
6434;SDS011;3250;42.694;23.278;2023-04-25T08:28:51;3.63;;;2.90;;
6434;SDS011;3250;42.694;23.278;2023-04-25T08:31:17;4.05;;;3.22;;
6434;SDS011;3250;42.694;23.278;2023-04-25T08:33:42;3.05;;;2.60;;
6434;SDS011;3250;42.694;23.278;2023-04-25T08:36:10;3.33;;;2.80;;
6434;SDS011;3250;42.694;23.278;2023-04-25T08:38:35;5.47;;;4.20;;
6434;SDS011;3250;42.694;23.278;2023-04-25T08:41:01;8.95;;;5.40;;
6434;SDS011;3250;42.694;23.278;2023-04-25T08:43:28;5.35;;;3.40;;
6434;SDS011;3250;42.694;23.278;2023-04-25T08:45:57;4.95;;;3.58;;
6434;SDS011;3250;42.694;23.278;2023-04-25T08:48:25;4.88;;;3.33;;
6434;SDS011;3250;42.694;23.278;2023-04-25T08:50:53;4.80;;;2.22;;
6434;SDS011;3250;42.694;23.278;2023-04-25T08:53:27;2.00;;;1.90;;
6434;SDS011;3250;42.694;23.278;2023-04-25T08:55:55;6.47;;;2.08;;
6434;SDS011;3250;42.694;23.278;2023-04-25T08:58:21;1.85;;;1.70;;
6434;SDS011;3250;42.694;23.278;2023-04-25T09:00:48;2.50;;;1.90;;
6434;SDS011;3250;42.694;23.278;2023-04-25T09:03:13;4.65;;;2.05;;
6434;SDS011;3250;42.694;23.278;2023-04-25T09:05:40;3.13;;;2.03;;
6434;SDS011;3250;42.694;23.278;2023-04-25T09:08:06;3.35;;;2.72;;
6434;SDS011;3250;42.694;23.278;2023-04-25T09:10:32;4.47;;;2.45;;
6434;SDS011;3250;42.694;23.278;2023-04-25T09:13:07;4.18;;;2.28;;
6434;SDS011;3250;42.694;23.278;2023-04-25T09:15:51;4.85;;;2.83;;
6434;SDS011;3250;42.694;23.278;2023-04-25T09:20:53;3.60;;;2.85;;
6434;SDS011;3250;42.694;23.278;2023-04-25T09:23:38;2.80;;;2.30;;
6434;SDS011;3250;42.694;23.278;2023-04-25T09:26:09;5.05;;;2.80;;
6434;SDS011;3250;42.694;23.278;2023-04-25T09:28:35;2.15;;;1.88;;
6434;SDS011;3250;42.694;23.278;2023-04-25T09:31:02;3.72;;;2.92;;
6434;SDS011;3250;42.694;23.278;2023-04-25T09:33:29;3.47;;;3.17;;
6434;SDS011;3250;42.694;23.278;2023-04-25T09:36:01;2.90;;;2.60;;
6434;SDS011;3250;42.694;23.278;2023-04-25T09:38:31;3.20;;;2.90;;
6434;SDS011;3250;42.694;23.278;2023-04-25T09:41:05;2.42;;;2.20;;
6434;SDS011;3250;42.694;23.278;2023-04-25T09:43:30;4.47;;;1.92;;
6434;SDS011;3250;42.694;23.278;2023-04-25T09:45:56;3.03;;;2.67;;
6434;SDS011;3250;42.694;23.278;2023-04-25T09:48:24;3.67;;;2.72;;
6434;SDS011;3250;42.694;23.278;2023-04-25T09:53:28;3.63;;;2.03;;
6434;SDS011;3250;42.694;23.278;2023-04-25T09:55:53;3.65;;;2.13;;
6434;SDS011;3250;42.694;23.278;2023-04-25T10:05:17;2.60;;;1.80;;
6434;SDS011;3250;42.694;23.278;2023-04-25T10:07:43;3.40;;;1.50;;
6434;SDS011;3250;42.694;23.278;2023-04-25T10:10:28;1.80;;;1.70;;
6434;SDS011;3250;42.694;23.278;2023-04-25T10:12:57;6.20;;;2.70;;
6434;SDS011;3250;42.694;23.278;2023-04-25T10:15:23;6.88;;;2.22;;
6434;SDS011;3250;42.694;23.278;2023-04-25T10:17:50;2.60;;;1.83;;
6434;SDS011;3250;42.694;23.278;2023-04-25T10:20:16;1.13;;;1.02;;
6434;SDS011;3250;42.694;23.278;2023-04-25T10:25:23;1.40;;;1.20;;
6434;SDS011;3250;42.694;23.278;2023-04-25T10:27:52;6.22;;;1.70;;
6434;SDS011;3250;42.694;23.278;2023-04-25T10:30:18;5.30;;;1.95;;
6434;SDS011;3250;42.694;23.278;2023-04-25T10:32:44;3.50;;;1.33;;
6434;SDS011;3250;42.694;23.278;2023-04-25T10:35:11;1.58;;;1.40;;
6434;SDS011;3250;42.694;23.278;2023-04-25T10:40:22;1.65;;;1.50;;
6434;SDS011;3250;42.694;23.278;2023-04-25T10:42:48;2.65;;;1.50;;
6434;SDS011;3250;42.694;23.278;2023-04-25T10:45:13;3.25;;;1.92;;
6434;SDS011;3250;42.694;23.278;2023-04-25T10:47:48;2.00;;;1.80;;
6434;SDS011;3250;42.694;23.278;2023-04-25T10:50:14;6.55;;;4.03;;
6434;SDS011;3250;42.694;23.278;2023-04-25T10:52:43;2.70;;;2.50;;
6434;SDS011;3250;42.694;23.278;2023-04-25T10:55:09;4.15;;;2.05;;
6434;SDS011;3250;42.694;23.278;2023-04-25T11:00:09;1.58;;;1.48;;
6434;SDS011;3250;42.694;23.278;2023-04-25T11:02:41;1.40;;;1.17;;
6434;SDS011;3250;42.694;23.278;2023-04-25T11:05:08;2.03;;;1.00;;
6434;SDS011;3250;42.694;23.278;2023-04-25T11:07:37;1.60;;;1.50;;
6434;SDS011;3250;42.694;23.278;2023-04-25T11:10:08;1.40;;;1.20;;
6434;SDS011;3250;42.694;23.278;2023-04-25T11:12:34;1.40;;;1.30;;
6434;SDS011;3250;42.694;23.278;2023-04-25T11:15:05;2.00;;;1.10;;
6434;SDS011;3250;42.694;23.278;2023-04-25T11:17:32;2.70;;;1.50;;
6434;SDS011;3250;42.694;23.278;2023-04-25T11:19:58;2.95;;;1.33;;
6434;SDS011;3250;42.694;23.278;2023-04-25T11:22:24;4.95;;;1.60;;
6434;SDS011;3250;42.694;23.278;2023-04-25T11:24:49;3.78;;;2.15;;
6434;SDS011;3250;42.694;23.278;2023-04-25T11:27:15;3.20;;;1.70;;
6434;SDS011;3250;42.694;23.278;2023-04-25T11:29:41;4.00;;;1.85;;
6434;SDS011;3250;42.694;23.278;2023-04-25T11:32:06;2.83;;;1.77;;
6434;SDS011;3250;42.694;23.278;2023-04-25T11:34:33;4.90;;;1.80;;
6434;SDS011;3250;42.694;23.278;2023-04-25T11:36:59;3.72;;;1.90;;
6434;SDS011;3250;42.694;23.278;2023-04-25T11:39:26;5.05;;;1.45;;
6434;SDS011;3250;42.694;23.278;2023-04-25T11:41:53;2.22;;;1.67;;
6434;SDS011;3250;42.694;23.278;2023-04-25T11:44:19;7.43;;;1.85;;
6434;SDS011;3250;42.694;23.278;2023-04-25T11:46:46;3.83;;;2.08;;
6434;SDS011;3250;42.694;23.278;2023-04-25T11:49:12;4.18;;;2.05;;
6434;SDS011;3250;42.694;23.278;2023-04-25T11:51:39;6.93;;;3.13;;
6434;SDS011;3250;42.694;23.278;2023-04-25T11:54:08;13.00;;;2.30;;
6434;SDS011;3250;42.694;23.278;2023-04-25T11:56:34;2.65;;;1.80;;
6434;SDS011;3250;42.694;23.278;2023-04-25T11:59:00;1.70;;;1.20;;
6434;SDS011;3250;42.694;23.278;2023-04-25T12:03:57;1.40;;;1.30;;
6434;SDS011;3250;42.694;23.278;2023-04-25T12:06:26;3.05;;;1.80;;
6434;SDS011;3250;42.694;23.278;2023-04-25T12:09:02;2.13;;;1.42;;
6434;SDS011;3250;42.694;23.278;2023-04-25T12:11:32;1.50;;;1.33;;
6434;SDS011;3250;42.694;23.278;2023-04-25T12:14:03;1.40;;;1.30;;
6434;SDS011;3250;42.694;23.278;2023-04-25T12:16:30;1.17;;;1.08;;
6434;SDS011;3250;42.694;23.278;2023-04-25T12:19:05;2.05;;;1.17;;
6434;SDS011;3250;42.694;23.278;2023-04-25T12:21:30;1.25;;;1.15;;
6434;SDS011;3250;42.694;23.278;2023-04-25T12:24:08;1.58;;;1.20;;
6434;SDS011;3250;42.694;23.278;2023-04-25T12:26:51;5.75;;;3.85;;
6434;SDS011;3250;42.694;23.278;2023-04-25T12:29:30;3.58;;;1.30;;
6434;SDS011;3250;42.694;23.278;2023-04-25T12:31:57;1.65;;;1.20;;
6434;SDS011;3250;42.694;23.278;2023-04-25T12:34:23;7.97;;;3.47;;
6434;SDS011;3250;42.694;23.278;2023-04-25T12:36:49;5.50;;;2.10;;
6434;SDS011;3250;42.694;23.278;2023-04-25T12:39:22;7.43;;;2.30;;
6434;SDS011;3250;42.694;23.278;2023-04-25T12:41:52;4.75;;;2.95;;
6434;SDS011;3250;42.694;23.278;2023-04-25T12:44:19;3.72;;;2.30;;
6434;SDS011;3250;42.694;23.278;2023-04-25T12:46:44;2.15;;;1.52;;
6434;SDS011;3250;42.694;23.278;2023-04-25T12:49:10;3.40;;;2.20;;
6434;SDS011;3250;42.694;23.278;2023-04-25T12:51:36;4.82;;;1.90;;
6434;SDS011;3250;42.694;23.278;2023-04-25T12:54:02;6.43;;;2.00;;
6434;SDS011;3250;42.694;23.278;2023-04-25T12:56:29;6.18;;;2.22;;
6434;SDS011;3250;42.694;23.278;2023-04-25T12:58:55;7.20;;;4.20;;
6434;SDS011;3250;42.694;23.278;2023-04-25T13:01:21;6.55;;;4.95;;
6434;SDS011;3250;42.694;23.278;2023-04-25T13:03:47;6.28;;;5.68;;
6434;SDS011;3250;42.694;23.278;2023-04-25T13:06:13;7.65;;;4.72;;
6434;SDS011;3250;42.694;23.278;2023-04-25T13:08:39;9.90;;;5.10;;
6434;SDS011;3250;42.694;23.278;2023-04-25T13:11:05;6.57;;;3.87;;
6434;SDS011;3250;42.694;23.278;2023-04-25T13:13:31;5.20;;;2.53;;
6434;SDS011;3250;42.694;23.278;2023-04-25T13:15:57;17.58;;;4.30;;
6434;SDS011;3250;42.694;23.278;2023-04-25T13:18:22;11.75;;;3.88;;
6434;SDS011;3250;42.694;23.278;2023-04-25T13:20:51;17.80;;;5.05;;
6434;SDS011;3250;42.694;23.278;2023-04-25T13:23:17;6.77;;;3.30;;
6434;SDS011;3250;42.694;23.278;2023-04-25T13:25:43;4.63;;;2.33;;
6434;SDS011;3250;42.694;23.278;2023-04-25T13:28:08;3.50;;;2.20;;
6434;SDS011;3250;42.694;23.278;2023-04-25T13:30:34;3.67;;;1.77;;
6434;SDS011;3250;42.694;23.278;2023-04-25T13:32:59;4.28;;;1.80;;
6434;SDS011;3250;42.694;23.278;2023-04-25T13:35:28;3.40;;;1.90;;
6434;SDS011;3250;42.694;23.278;2023-04-25T13:37:54;4.88;;;2.03;;
6434;SDS011;3250;42.694;23.278;2023-04-25T13:40:20;5.40;;;2.67;;
6434;SDS011;3250;42.694;23.278;2023-04-25T13:42:46;4.47;;;2.33;;
6434;SDS011;3250;42.694;23.278;2023-04-25T13:45:11;6.87;;;2.23;;
6434;SDS011;3250;42.694;23.278;2023-04-25T13:47:37;10.87;;;2.47;;
6434;SDS011;3250;42.694;23.278;2023-04-25T13:50:03;2.00;;;1.50;;
6434;SDS011;3250;42.694;23.278;2023-04-25T13:52:30;4.63;;;2.22;;
6434;SDS011;3250;42.694;23.278;2023-04-25T13:54:56;2.97;;;2.07;;
6434;SDS011;3250;42.694;23.278;2023-04-25T13:57:21;3.87;;;2.27;;
6434;SDS011;3250;42.694;23.278;2023-04-25T13:59:46;3.30;;;1.90;;
6434;SDS011;3250;42.694;23.278;2023-04-25T14:02:12;5.07;;;2.10;;
6434;SDS011;3250;42.694;23.278;2023-04-25T14:04:37;2.90;;;1.90;;
6434;SDS011;3250;42.694;23.278;2023-04-25T14:07:03;1.87;;;1.50;;
6434;SDS011;3250;42.694;23.278;2023-04-25T14:09:29;1.97;;;1.60;;
6434;SDS011;3250;42.694;23.278;2023-04-25T14:11:55;4.13;;;1.63;;
6434;SDS011;3250;42.694;23.278;2023-04-25T14:14:21;1.77;;;1.63;;
6434;SDS011;3250;42.694;23.278;2023-04-25T14:16:47;2.57;;;1.60;;
6434;SDS011;3250;42.694;23.278;2023-04-25T14:19:14;1.70;;;1.60;;
6434;SDS011;3250;42.694;23.278;2023-04-25T14:21:40;3.17;;;1.53;;
6434;SDS011;3250;42.694;23.278;2023-04-25T14:24:06;1.70;;;1.37;;
6434;SDS011;3250;42.694;23.278;2023-04-25T14:26:33;2.10;;;1.60;;
6434;SDS011;3250;42.694;23.278;2023-04-25T14:28:59;2.33;;;1.70;;
6434;SDS011;3250;42.694;23.278;2023-04-25T14:31:24;1.67;;;1.40;;
6434;SDS011;3250;42.694;23.278;2023-04-25T14:33:50;1.75;;;1.58;;
6434;SDS011;3250;42.694;23.278;2023-04-25T14:36:15;1.27;;;1.17;;
6434;SDS011;3250;42.694;23.278;2023-04-25T14:38:41;1.30;;;1.20;;
6434;SDS011;3250;42.694;23.278;2023-04-25T14:41:06;2.20;;;1.40;;
6434;SDS011;3250;42.694;23.278;2023-04-25T14:43:32;2.30;;;1.77;;
6434;SDS011;3250;42.694;23.278;2023-04-25T14:45:57;3.07;;;1.80;;
6434;SDS011;3250;42.694;23.278;2023-04-25T14:48:22;2.92;;;2.15;;
6434;SDS011;3250;42.694;23.278;2023-04-25T14:50:48;3.35;;;2.40;;
6434;SDS011;3250;42.694;23.278;2023-04-25T14:53:13;5.03;;;2.80;;
6434;SDS011;3250;42.694;23.278;2023-04-25T14:55:40;4.60;;;3.00;;
6434;SDS011;3250;42.694;23.278;2023-04-25T14:58:06;3.80;;;2.42;;
6434;SDS011;3250;42.694;23.278;2023-04-25T15:00:32;3.03;;;2.25;;
6434;SDS011;3250;42.694;23.278;2023-04-25T15:02:58;4.80;;;2.78;;
6434;SDS011;3250;42.694;23.278;2023-04-25T15:05:23;4.18;;;2.65;;
6434;SDS011;3250;42.694;23.278;2023-04-25T15:07:49;6.07;;;2.95;;
6434;SDS011;3250;42.694;23.278;2023-04-25T15:10:17;3.65;;;2.60;;
6434;SDS011;3250;42.694;23.278;2023-04-25T15:12:43;3.97;;;3.00;;
6434;SDS011;3250;42.694;23.278;2023-04-25T15:15:09;4.70;;;2.65;;
6434;SDS011;3250;42.694;23.278;2023-04-25T15:17:40;4.30;;;2.65;;